Sanibel, FL (33957)

8:58 AM EDT on April 27, 2015 (GMT -0400)
RAWS | | Change Station
CLOSE
Current Station
Personal Weather Station
Location: Sanibel, FL
Elevation: 9 ft
Nearby Weather Stations

Elev 9 ft 26.44 °N, 82.10 °W | Updated 41 minutes ago

Partly Cloudy
Partly Cloudy
82 °F
Feels Like 89 °F
N
5
Wind Variable Wind from West
Gusts 8.0 mph

Today
High -- | Low -- °F
--% Chance of Precip.
Yesterday
High -- | Low -- °F
Precip. -- in
6:54 AM 7:58 PM
Waxing Gibbous, 64% visible
Pressure 29.83 in
Visibility 7.0 miles
Clouds Few 4400 ft
Heat Index 89 °F
Dew Point 76 °F
Humidity 81%
Rainfall in
Snow Depth Not available.
UV 1 out of 12
Pollen 6.80 out of 12
Air Quality Not available.
Flu Activity Local Activity
METAR KFMY 271153Z 26007KT 7SM FEW044 27/24 A2983 RMK AO2 SLP101 T02670239 10267 20250 53023

More Conditions Fewer Conditions

Pressure 29.83 in
Visibility 7.0 miles
Clouds Few 4400 ft
Heat Index 89 °F
Dew Point 76 °F
Humidity 81%
Rainfall in
Snow Depth Not available.
UV 1 out of 12
Pollen 6.80 out of 12
Air Quality Not available.
Flu Activity Local Activity
METAR KFMY 271153Z 26007KT 7SM FEW044 27/24 A2983 RMK AO2 SLP101 T02670239 10267 20250 53023

More Conditions Fewer Conditions

10-Day Weather Forecast

Almanac

Astronomy

Apr. 27, 2015 Rise Set
Actual Time
Civil Twilight
Nautical Twilight
Astronomical Twilight
Moon
Length of Visible Light
Length of Day
Tomorrow will be .
, % of the Moon is Illuminated

Today's Extremes

State Highs State Lows

Community

WunderPhotos

Upload Photos

1,817,292 photos uploaded!

WunderBlogs® & News

Nearby

Air Quality

  Air Quality AQ Index Pollutant
Not available.

Snow Depth

Station Depth Elevation

Earthquake Activity

City Distance Mag. Time & Date
Minimum magnitude displayed is 2.5.

Coastal Water Temperatures

Place Temperature

Stations

Nearby Weather Stations

Station Location Temp. Windchill Dew Point Humidity Wind Precip. Elev Updated Type